sensor_id;sensor_type;location;lat;lon;timestamp;P1;durP1;ratioP1;P2;durP2;ratioP2
62338;SDS011;48368;53.406;6.214;2024-01-16T00:00:15;3.85;;;0.82;;
62338;SDS011;48368;53.406;6.214;2024-01-16T00:02:41;10.02;;;1.17;;
62338;SDS011;48368;53.406;6.214;2024-01-16T00:05:10;8.70;;;1.27;;
62338;SDS011;48368;53.406;6.214;2024-01-16T00:07:39;11.18;;;1.60;;
62338;SDS011;48368;53.406;6.214;2024-01-16T00:10:06;8.13;;;0.98;;
62338;SDS011;48368;53.406;6.214;2024-01-16T00:12:34;5.78;;;0.73;;
62338;SDS011;48368;53.406;6.214;2024-01-16T00:15:00;8.82;;;1.65;;
62338;SDS011;48368;53.406;6.214;2024-01-16T00:17:25;12.45;;;1.20;;
62338;SDS011;48368;53.406;6.214;2024-01-16T00:19:51;17.00;;;1.40;;
62338;SDS011;48368;53.406;6.214;2024-01-16T00:22:17;3.85;;;0.70;;
62338;SDS011;48368;53.406;6.214;2024-01-16T00:24:42;6.95;;;1.30;;
62338;SDS011;48368;53.406;6.214;2024-01-16T00:27:08;3.25;;;0.85;;
62338;SDS011;48368;53.406;6.214;2024-01-16T00:29:33;5.57;;;1.30;;
62338;SDS011;48368;53.406;6.214;2024-01-16T00:31:59;4.88;;;0.43;;
62338;SDS011;48368;53.406;6.214;2024-01-16T00:34:25;8.10;;;0.70;;
62338;SDS011;48368;53.406;6.214;2024-01-16T00:36:50;6.32;;;0.40;;
62338;SDS011;48368;53.406;6.214;2024-01-16T00:39:16;2.38;;;0.25;;
62338;SDS011;48368;53.406;6.214;2024-01-16T00:41:41;2.40;;;0.43;;
62338;SDS011;48368;53.406;6.214;2024-01-16T00:44:07;1.42;;;0.32;;
62338;SDS011;48368;53.406;6.214;2024-01-16T00:46:33;5.13;;;1.13;;
62338;SDS011;48368;53.406;6.214;2024-01-16T00:48:59;5.90;;;1.08;;
62338;SDS011;48368;53.406;6.214;2024-01-16T00:51:24;7.38;;;0.95;;
62338;SDS011;48368;53.406;6.214;2024-01-16T00:53:50;3.55;;;0.50;;
62338;SDS011;48368;53.406;6.214;2024-01-16T00:56:16;4.90;;;0.75;;
62338;SDS011;48368;53.406;6.214;2024-01-16T00:58:41;7.85;;;0.80;;
62338;SDS011;48368;53.406;6.214;2024-01-16T01:01:07;9.20;;;0.90;;
62338;SDS011;48368;53.406;6.214;2024-01-16T01:03:33;6.38;;;1.05;;
62338;SDS011;48368;53.406;6.214;2024-01-16T01:06:00;11.63;;;0.90;;
62338;SDS011;48368;53.406;6.214;2024-01-16T01:08:26;7.38;;;1.15;;
62338;SDS011;48368;53.406;6.214;2024-01-16T01:10:52;8.75;;;0.88;;
62338;SDS011;48368;53.406;6.214;2024-01-16T01:13:17;8.07;;;0.93;;
62338;SDS011;48368;53.406;6.214;2024-01-16T01:15:43;9.38;;;1.17;;
62338;SDS011;48368;53.406;6.214;2024-01-16T01:18:12;5.82;;;1.30;;
62338;SDS011;48368;53.406;6.214;2024-01-16T01:20:38;6.43;;;1.25;;
62338;SDS011;48368;53.406;6.214;2024-01-16T01:23:04;14.35;;;1.92;;
62338;SDS011;48368;53.406;6.214;2024-01-16T01:25:29;9.38;;;1.25;;
62338;SDS011;48368;53.406;6.214;2024-01-16T01:27:57;11.25;;;1.17;;
62338;SDS011;48368;53.406;6.214;2024-01-16T01:30:23;8.63;;;1.02;;
62338;SDS011;48368;53.406;6.214;2024-01-16T01:32:49;4.00;;;0.90;;
62338;SDS011;48368;53.406;6.214;2024-01-16T01:35:16;12.57;;;1.20;;
62338;SDS011;48368;53.406;6.214;2024-01-16T01:37:45;8.52;;;0.93;;
62338;SDS011;48368;53.406;6.214;2024-01-16T01:40:10;5.55;;;0.70;;
62338;SDS011;48368;53.406;6.214;2024-01-16T01:42:37;8.05;;;1.08;;
62338;SDS011;48368;53.406;6.214;2024-01-16T01:45:05;5.18;;;0.68;;
62338;SDS011;48368;53.406;6.214;2024-01-16T01:47:32;4.57;;;0.93;;
62338;SDS011;48368;53.406;6.214;2024-01-16T01:49:57;12.70;;;1.25;;
62338;SDS011;48368;53.406;6.214;2024-01-16T01:52:24;6.15;;;0.98;;
62338;SDS011;48368;53.406;6.214;2024-01-16T01:54:50;5.45;;;1.10;;
62338;SDS011;48368;53.406;6.214;2024-01-16T01:57:16;18.63;;;2.22;;
62338;SDS011;48368;53.406;6.214;2024-01-16T01:59:43;2.80;;;0.70;;
62338;SDS011;48368;53.406;6.214;2024-01-16T02:02:08;4.75;;;0.85;;
62338;SDS011;48368;53.406;6.214;2024-01-16T02:04:36;7.15;;;0.95;;
62338;SDS011;48368;53.406;6.214;2024-01-16T02:07:04;9.50;;;1.27;;
62338;SDS011;48368;53.406;6.214;2024-01-16T02:09:29;13.43;;;1.20;;
62338;SDS011;48368;53.406;6.214;2024-01-16T02:11:55;10.45;;;1.08;;
62338;SDS011;48368;53.406;6.214;2024-01-16T02:14:21;5.93;;;0.90;;
62338;SDS011;48368;53.406;6.214;2024-01-16T02:16:49;8.90;;;0.90;;
62338;SDS011;48368;53.406;6.214;2024-01-16T02:19:16;6.40;;;1.60;;
62338;SDS011;48368;53.406;6.214;2024-01-16T02:21:42;9.95;;;1.27;;
62338;SDS011;48368;53.406;6.214;2024-01-16T02:24:15;7.20;;;1.10;;
62338;SDS011;48368;53.406;6.214;2024-01-16T02:26:42;5.35;;;0.60;;
62338;SDS011;48368;53.406;6.214;2024-01-16T02:29:08;2.47;;;0.82;;
62338;SDS011;48368;53.406;6.214;2024-01-16T02:31:34;8.40;;;1.15;;
62338;SDS011;48368;53.406;6.214;2024-01-16T02:34:00;9.35;;;1.70;;
62338;SDS011;48368;53.406;6.214;2024-01-16T02:36:28;6.35;;;0.63;;
62338;SDS011;48368;53.406;6.214;2024-01-16T02:38:56;17.52;;;1.40;;
62338;SDS011;48368;53.406;6.214;2024-01-16T02:41:22;6.70;;;1.17;;
62338;SDS011;48368;53.406;6.214;2024-01-16T02:43:47;3.60;;;0.95;;
62338;SDS011;48368;53.406;6.214;2024-01-16T02:46:13;9.77;;;1.20;;
62338;SDS011;48368;53.406;6.214;2024-01-16T02:48:39;8.50;;;1.05;;
62338;SDS011;48368;53.406;6.214;2024-01-16T02:51:07;7.30;;;1.23;;
62338;SDS011;48368;53.406;6.214;2024-01-16T02:53:33;9.07;;;1.23;;
62338;SDS011;48368;53.406;6.214;2024-01-16T02:55:59;6.60;;;0.98;;
62338;SDS011;48368;53.406;6.214;2024-01-16T02:58:28;9.05;;;1.02;;
62338;SDS011;48368;53.406;6.214;2024-01-16T03:00:54;19.45;;;1.33;;
62338;SDS011;48368;53.406;6.214;2024-01-16T03:03:26;16.13;;;1.73;;
62338;SDS011;48368;53.406;6.214;2024-01-16T03:05:53;8.77;;;1.10;;
62338;SDS011;48368;53.406;6.214;2024-01-16T03:08:21;10.70;;;1.35;;
62338;SDS011;48368;53.406;6.214;2024-01-16T03:10:47;12.27;;;2.20;;
62338;SDS011;48368;53.406;6.214;2024-01-16T03:13:13;12.57;;;2.13;;
62338;SDS011;48368;53.406;6.214;2024-01-16T03:15:39;8.23;;;1.20;;
62338;SDS011;48368;53.406;6.214;2024-01-16T03:18:06;9.20;;;1.88;;
62338;SDS011;48368;53.406;6.214;2024-01-16T03:20:31;8.48;;;1.52;;
62338;SDS011;48368;53.406;6.214;2024-01-16T03:22:57;12.18;;;1.27;;
62338;SDS011;48368;53.406;6.214;2024-01-16T03:25:23;13.25;;;2.55;;
62338;SDS011;48368;53.406;6.214;2024-01-16T03:27:51;7.18;;;1.00;;
62338;SDS011;48368;53.406;6.214;2024-01-16T03:30:17;14.50;;;3.13;;
62338;SDS011;48368;53.406;6.214;2024-01-16T03:32:43;8.13;;;1.70;;
62338;SDS011;48368;53.406;6.214;2024-01-16T03:35:11;9.23;;;1.02;;
62338;SDS011;48368;53.406;6.214;2024-01-16T03:37:37;10.88;;;1.45;;
62338;SDS011;48368;53.406;6.214;2024-01-16T03:40:03;9.38;;;1.63;;
62338;SDS011;48368;53.406;6.214;2024-01-16T03:42:29;9.40;;;1.88;;
62338;SDS011;48368;53.406;6.214;2024-01-16T03:44:55;6.35;;;1.35;;
62338;SDS011;48368;53.406;6.214;2024-01-16T03:47:23;11.70;;;1.52;;
62338;SDS011;48368;53.406;6.214;2024-01-16T03:49:49;11.10;;;1.10;;
62338;SDS011;48368;53.406;6.214;2024-01-16T03:52:14;7.53;;;1.40;;
62338;SDS011;48368;53.406;6.214;2024-01-16T03:54:43;6.45;;;1.00;;
62338;SDS011;48368;53.406;6.214;2024-01-16T03:57:08;7.28;;;1.42;;
62338;SDS011;48368;53.406;6.214;2024-01-16T03:59:36;10.00;;;1.33;;
62338;SDS011;48368;53.406;6.214;2024-01-16T04:02:02;4.93;;;0.95;;
62338;SDS011;48368;53.406;6.214;2024-01-16T04:04:28;6.40;;;0.93;;
62338;SDS011;48368;53.406;6.214;2024-01-16T04:06:57;6.13;;;1.20;;
62338;SDS011;48368;53.406;6.214;2024-01-16T04:09:23;5.13;;;0.88;;
62338;SDS011;48368;53.406;6.214;2024-01-16T04:11:49;6.07;;;1.27;;
62338;SDS011;48368;53.406;6.214;2024-01-16T04:14:15;8.48;;;1.10;;
62338;SDS011;48368;53.406;6.214;2024-01-16T04:16:41;4.70;;;1.13;;
62338;SDS011;48368;53.406;6.214;2024-01-16T04:19:06;5.65;;;0.70;;
62338;SDS011;48368;53.406;6.214;2024-01-16T04:21:36;11.23;;;1.48;;
62338;SDS011;48368;53.406;6.214;2024-01-16T04:24:02;6.22;;;0.60;;
62338;SDS011;48368;53.406;6.214;2024-01-16T04:26:27;9.45;;;1.20;;
62338;SDS011;48368;53.406;6.214;2024-01-16T04:28:53;5.05;;;0.93;;
62338;SDS011;48368;53.406;6.214;2024-01-16T04:31:19;6.75;;;0.80;;
62338;SDS011;48368;53.406;6.214;2024-01-16T04:33:46;7.65;;;0.98;;
62338;SDS011;48368;53.406;6.214;2024-01-16T04:36:15;8.18;;;2.15;;
62338;SDS011;48368;53.406;6.214;2024-01-16T04:38:40;8.63;;;0.93;;
62338;SDS011;48368;53.406;6.214;2024-01-16T04:41:06;8.50;;;0.90;;
62338;SDS011;48368;53.406;6.214;2024-01-16T04:43:32;5.15;;;0.57;;
62338;SDS011;48368;53.406;6.214;2024-01-16T04:45:58;6.72;;;0.70;;
62338;SDS011;48368;53.406;6.214;2024-01-16T04:48:23;3.35;;;0.70;;
62338;SDS011;48368;53.406;6.214;2024-01-16T04:50:49;5.07;;;0.55;;
62338;SDS011;48368;53.406;6.214;2024-01-16T04:53:18;8.52;;;0.90;;
62338;SDS011;48368;53.406;6.214;2024-01-16T04:55:43;1.35;;;0.30;;
62338;SDS011;48368;53.406;6.214;2024-01-16T04:58:09;5.15;;;0.70;;
62338;SDS011;48368;53.406;6.214;2024-01-16T05:00:35;6.90;;;0.88;;
62338;SDS011;48368;53.406;6.214;2024-01-16T05:03:03;7.10;;;1.20;;
62338;SDS011;48368;53.406;6.214;2024-01-16T05:05:30;4.82;;;1.05;;
62338;SDS011;48368;53.406;6.214;2024-01-16T05:07:57;5.53;;;1.83;;
62338;SDS011;48368;53.406;6.214;2024-01-16T05:10:25;8.15;;;1.13;;
62338;SDS011;48368;53.406;6.214;2024-01-16T05:12:51;6.28;;;0.85;;
62338;SDS011;48368;53.406;6.214;2024-01-16T05:15:16;5.35;;;1.10;;
62338;SDS011;48368;53.406;6.214;2024-01-16T05:17:42;6.78;;;1.38;;
62338;SDS011;48368;53.406;6.214;2024-01-16T05:20:07;9.93;;;1.15;;
62338;SDS011;48368;53.406;6.214;2024-01-16T05:22:34;7.45;;;1.23;;
62338;SDS011;48368;53.406;6.214;2024-01-16T05:25:00;12.57;;;1.27;;
62338;SDS011;48368;53.406;6.214;2024-01-16T05:27:28;9.27;;;1.50;;
62338;SDS011;48368;53.406;6.214;2024-01-16T05:29:54;6.10;;;1.13;;
62338;SDS011;48368;53.406;6.214;2024-01-16T05:32:20;11.20;;;1.27;;
62338;SDS011;48368;53.406;6.214;2024-01-16T05:34:45;5.72;;;0.80;;
62338;SDS011;48368;53.406;6.214;2024-01-16T05:37:11;8.55;;;1.02;;
62338;SDS011;48368;53.406;6.214;2024-01-16T05:39:37;5.68;;;1.30;;
62338;SDS011;48368;53.406;6.214;2024-01-16T05:42:05;7.45;;;1.42;;
62338;SDS011;48368;53.406;6.214;2024-01-16T05:44:31;7.50;;;1.52;;
62338;SDS011;48368;53.406;6.214;2024-01-16T05:46:57;6.57;;;1.10;;
62338;SDS011;48368;53.406;6.214;2024-01-16T05:49:22;6.85;;;1.00;;
62338;SDS011;48368;53.406;6.214;2024-01-16T05:51:48;7.60;;;1.40;;
62338;SDS011;48368;53.406;6.214;2024-01-16T05:54:14;8.50;;;1.90;;
62338;SDS011;48368;53.406;6.214;2024-01-16T05:56:39;8.57;;;1.10;;
62338;SDS011;48368;53.406;6.214;2024-01-16T05:59:05;5.47;;;1.27;;
62338;SDS011;48368;53.406;6.214;2024-01-16T06:01:32;6.97;;;1.20;;
62338;SDS011;48368;53.406;6.214;2024-01-16T06:04:00;6.45;;;1.70;;
62338;SDS011;48368;53.406;6.214;2024-01-16T06:06:27;7.68;;;1.30;;
62338;SDS011;48368;53.406;6.214;2024-01-16T06:08:53;10.77;;;1.15;;
62338;SDS011;48368;53.406;6.214;2024-01-16T06:11:18;9.98;;;1.00;;
62338;SDS011;48368;53.406;6.214;2024-01-16T06:13:54;7.53;;;1.05;;
62338;SDS011;48368;53.406;6.214;2024-01-16T06:16:19;10.27;;;1.60;;
62338;SDS011;48368;53.406;6.214;2024-01-16T06:18:45;14.65;;;1.23;;
62338;SDS011;48368;53.406;6.214;2024-01-16T06:21:10;11.02;;;2.45;;
62338;SDS011;48368;53.406;6.214;2024-01-16T06:23:37;8.30;;;1.48;;
62338;SDS011;48368;53.406;6.214;2024-01-16T06:26:07;7.03;;;1.13;;
62338;SDS011;48368;53.406;6.214;2024-01-16T06:28:33;7.40;;;1.52;;
62338;SDS011;48368;53.406;6.214;2024-01-16T06:30:59;12.43;;;1.60;;
62338;SDS011;48368;53.406;6.214;2024-01-16T06:33:24;9.50;;;1.63;;
62338;SDS011;48368;53.406;6.214;2024-01-16T06:35:51;6.55;;;1.85;;
62338;SDS011;48368;53.406;6.214;2024-01-16T06:38:16;7.70;;;1.48;;
62338;SDS011;48368;53.406;6.214;2024-01-16T06:40:42;8.68;;;1.77;;
62338;SDS011;48368;53.406;6.214;2024-01-16T06:43:08;11.50;;;1.52;;
62338;SDS011;48368;53.406;6.214;2024-01-16T06:45:34;12.27;;;1.77;;
62338;SDS011;48368;53.406;6.214;2024-01-16T06:47:59;3.65;;;0.77;;
62338;SDS011;48368;53.406;6.214;2024-01-16T06:50:25;9.82;;;1.27;;
62338;SDS011;48368;53.406;6.214;2024-01-16T06:52:50;6.07;;;0.98;;
62338;SDS011;48368;53.406;6.214;2024-01-16T06:55:16;7.10;;;1.45;;
62338;SDS011;48368;53.406;6.214;2024-01-16T06:57:42;11.57;;;3.50;;
62338;SDS011;48368;53.406;6.214;2024-01-16T07:00:07;6.35;;;1.92;;
62338;SDS011;48368;53.406;6.214;2024-01-16T07:02:33;7.68;;;1.10;;
62338;SDS011;48368;53.406;6.214;2024-01-16T07:04:59;3.67;;;0.60;;
62338;SDS011;48368;53.406;6.214;2024-01-16T07:07:28;4.03;;;0.75;;
62338;SDS011;48368;53.406;6.214;2024-01-16T07:09:55;10.50;;;1.58;;
62338;SDS011;48368;53.406;6.214;2024-01-16T07:12:24;11.32;;;1.17;;
62338;SDS011;48368;53.406;6.214;2024-01-16T07:14:50;5.65;;;1.10;;
62338;SDS011;48368;53.406;6.214;2024-01-16T07:17:15;8.88;;;1.50;;
62338;SDS011;48368;53.406;6.214;2024-01-16T07:19:41;8.77;;;1.20;;
62338;SDS011;48368;53.406;6.214;2024-01-16T07:22:07;4.03;;;0.80;;
62338;SDS011;48368;53.406;6.214;2024-01-16T07:24:32;5.13;;;0.50;;
62338;SDS011;48368;53.406;6.214;2024-01-16T07:26:58;3.28;;;0.80;;
62338;SDS011;48368;53.406;6.214;2024-01-16T07:29:23;7.13;;;0.77;;
62338;SDS011;48368;53.406;6.214;2024-01-16T07:31:49;5.50;;;0.63;;
62338;SDS011;48368;53.406;6.214;2024-01-16T07:34:15;3.08;;;0.60;;
62338;SDS011;48368;53.406;6.214;2024-01-16T07:36:45;3.92;;;1.13;;
62338;SDS011;48368;53.406;6.214;2024-01-16T07:39:11;9.93;;;1.35;;
62338;SDS011;48368;53.406;6.214;2024-01-16T07:41:37;8.63;;;0.80;;
62338;SDS011;48368;53.406;6.214;2024-01-16T07:44:02;6.68;;;0.95;;
62338;SDS011;48368;53.406;6.214;2024-01-16T07:46:28;6.75;;;0.70;;
62338;SDS011;48368;53.406;6.214;2024-01-16T07:48:54;4.80;;;0.70;;
62338;SDS011;48368;53.406;6.214;2024-01-16T07:51:19;6.35;;;1.65;;
62338;SDS011;48368;53.406;6.214;2024-01-16T07:53:45;5.07;;;0.70;;
62338;SDS011;48368;53.406;6.214;2024-01-16T07:56:11;6.60;;;1.50;;
62338;SDS011;48368;53.406;6.214;2024-01-16T07:58:37;5.88;;;1.98;;
62338;SDS011;48368;53.406;6.214;2024-01-16T08:01:02;6.43;;;0.93;;
62338;SDS011;48368;53.406;6.214;2024-01-16T08:03:28;11.80;;;1.23;;
62338;SDS011;48368;53.406;6.214;2024-01-16T08:05:54;9.50;;;1.10;;
62338;SDS011;48368;53.406;6.214;2024-01-16T08:08:21;7.75;;;1.70;;
62338;SDS011;48368;53.406;6.214;2024-01-16T08:10:46;9.98;;;2.08;;
62338;SDS011;48368;53.406;6.214;2024-01-16T08:13:12;7.28;;;1.63;;
62338;SDS011;48368;53.406;6.214;2024-01-16T08:15:38;12.13;;;2.38;;
62338;SDS011;48368;53.406;6.214;2024-01-16T08:18:03;6.03;;;1.38;;
62338;SDS011;48368;53.406;6.214;2024-01-16T08:20:29;5.93;;;1.88;;
62338;SDS011;48368;53.406;6.214;2024-01-16T08:22:55;7.72;;;2.03;;
62338;SDS011;48368;53.406;6.214;2024-01-16T08:25:21;10.45;;;1.95;;
62338;SDS011;48368;53.406;6.214;2024-01-16T08:27:46;10.48;;;1.33;;
62338;SDS011;48368;53.406;6.214;2024-01-16T08:30:12;6.05;;;2.05;;
62338;SDS011;48368;53.406;6.214;2024-01-16T08:32:38;13.23;;;3.40;;
62338;SDS011;48368;53.406;6.214;2024-01-16T08:35:03;21.00;;;4.32;;
62338;SDS011;48368;53.406;6.214;2024-01-16T08:37:33;17.08;;;4.85;;
62338;SDS011;48368;53.406;6.214;2024-01-16T08:39:59;10.48;;;1.73;;
62338;SDS011;48368;53.406;6.214;2024-01-16T08:42:24;9.02;;;1.67;;
62338;SDS011;48368;53.406;6.214;2024-01-16T08:44:50;4.07;;;0.90;;
62338;SDS011;48368;53.406;6.214;2024-01-16T08:47:16;6.75;;;0.85;;
62338;SDS011;48368;53.406;6.214;2024-01-16T08:49:42;5.15;;;0.77;;
62338;SDS011;48368;53.406;6.214;2024-01-16T08:52:08;4.50;;;0.80;;
62338;SDS011;48368;53.406;6.214;2024-01-16T08:54:38;6.00;;;1.20;;
62338;SDS011;48368;53.406;6.214;2024-01-16T08:57:03;3.72;;;1.30;;
62338;SDS011;48368;53.406;6.214;2024-01-16T08:59:29;6.13;;;0.75;;
62338;SDS011;48368;53.406;6.214;2024-01-16T09:01:55;7.47;;;1.42;;
62338;SDS011;48368;53.406;6.214;2024-01-16T09:04:20;3.33;;;0.88;;
62338;SDS011;48368;53.406;6.214;2024-01-16T09:06:47;4.40;;;0.75;;
62338;SDS011;48368;53.406;6.214;2024-01-16T09:09:12;6.25;;;0.73;;
62338;SDS011;48368;53.406;6.214;2024-01-16T09:11:41;7.60;;;0.63;;
62338;SDS011;48368;53.406;6.214;2024-01-16T09:14:06;3.33;;;0.82;;
62338;SDS011;48368;53.406;6.214;2024-01-16T09:16:32;4.60;;;0.80;;
62338;SDS011;48368;53.406;6.214;2024-01-16T09:18:57;6.10;;;0.82;;
62338;SDS011;48368;53.406;6.214;2024-01-16T09:21:23;4.25;;;0.80;;
62338;SDS011;48368;53.406;6.214;2024-01-16T09:23:49;7.55;;;1.30;;
62338;SDS011;48368;53.406;6.214;2024-01-16T09:26:14;6.90;;;1.00;;
62338;SDS011;48368;53.406;6.214;2024-01-16T09:28:40;4.05;;;0.90;;
62338;SDS011;48368;53.406;6.214;2024-01-16T09:31:06;7.97;;;1.10;;
62338;SDS011;48368;53.406;6.214;2024-01-16T09:33:33;5.55;;;1.13;;
62338;SDS011;48368;53.406;6.214;2024-01-16T09:35:59;4.72;;;0.95;;
62338;SDS011;48368;53.406;6.214;2024-01-16T09:38:24;2.28;;;0.50;;
62338;SDS011;48368;53.406;6.214;2024-01-16T09:40:50;1.35;;;0.30;;
62338;SDS011;48368;53.406;6.214;2024-01-16T09:43:17;2.58;;;0.50;;
62338;SDS011;48368;53.406;6.214;2024-01-16T09:45:45;2.30;;;0.50;;
62338;SDS011;48368;53.406;6.214;2024-01-16T09:48:14;1.95;;;0.40;;
62338;SDS011;48368;53.406;6.214;2024-01-16T09:50:40;1.67;;;0.77;;
62338;SDS011;48368;53.406;6.214;2024-01-16T09:53:05;2.42;;;0.50;;
62338;SDS011;48368;53.406;6.214;2024-01-16T09:55:31;4.65;;;0.75;;
62338;SDS011;48368;53.406;6.214;2024-01-16T09:57:57;4.50;;;0.50;;
62338;SDS011;48368;53.406;6.214;2024-01-16T10:00:24;1.75;;;0.52;;
62338;SDS011;48368;53.406;6.214;2024-01-16T10:02:51;2.83;;;0.50;;
62338;SDS011;48368;53.406;6.214;2024-01-16T10:05:18;2.55;;;0.43;;
62338;SDS011;48368;53.406;6.214;2024-01-16T10:07:45;4.43;;;0.50;;
62338;SDS011;48368;53.406;6.214;2024-01-16T10:10:13;2.10;;;0.30;;
62338;SDS011;48368;53.406;6.214;2024-01-16T10:12:40;6.53;;;0.70;;
62338;SDS011;48368;53.406;6.214;2024-01-16T10:15:06;7.25;;;1.50;;
62338;SDS011;48368;53.406;6.214;2024-01-16T10:17:37;1.48;;;0.60;;
62338;SDS011;48368;53.406;6.214;2024-01-16T10:20:07;2.10;;;0.38;;
62338;SDS011;48368;53.406;6.214;2024-01-16T10:22:38;3.10;;;0.88;;
62338;SDS011;48368;53.406;6.214;2024-01-16T10:27:32;2.35;;;0.50;;
62338;SDS011;48368;53.406;6.214;2024-01-16T10:29:58;2.65;;;0.45;;
62338;SDS011;48368;53.406;6.214;2024-01-16T10:32:30;3.72;;;0.85;;
62338;SDS011;48368;53.406;6.214;2024-01-16T10:35:07;5.85;;;0.60;;
62338;SDS011;48368;53.406;6.214;2024-01-16T10:37:41;3.47;;;0.73;;
62338;SDS011;48368;53.406;6.214;2024-01-16T10:40:14;3.88;;;1.35;;
62338;SDS011;48368;53.406;6.214;2024-01-16T10:43:03;4.72;;;0.60;;
62338;SDS011;48368;53.406;6.214;2024-01-16T10:45:29;3.88;;;0.50;;
62338;SDS011;48368;53.406;6.214;2024-01-16T10:48:08;4.20;;;0.70;;
62338;SDS011;48368;53.406;6.214;2024-01-16T10:50:34;3.42;;;0.35;;
62338;SDS011;48368;53.406;6.214;2024-01-16T10:53:05;4.60;;;0.77;;
62338;SDS011;48368;53.406;6.214;2024-01-16T10:55:34;4.07;;;1.20;;
62338;SDS011;48368;53.406;6.214;2024-01-16T10:58:11;2.60;;;0.40;;
62338;SDS011;48368;53.406;6.214;2024-01-16T11:00:38;4.93;;;0.70;;
62338;SDS011;48368;53.406;6.214;2024-01-16T11:03:07;7.65;;;0.70;;
62338;SDS011;48368;53.406;6.214;2024-01-16T11:05:37;2.00;;;0.47;;
62338;SDS011;48368;53.406;6.214;2024-01-16T11:08:04;2.60;;;0.45;;
62338;SDS011;48368;53.406;6.214;2024-01-16T11:10:33;1.55;;;0.45;;
62338;SDS011;48368;53.406;6.214;2024-01-16T11:13:00;2.58;;;0.73;;
62338;SDS011;48368;53.406;6.214;2024-01-16T11:15:27;3.38;;;0.85;;
62338;SDS011;48368;53.406;6.214;2024-01-16T11:17:54;2.80;;;0.75;;
62338;SDS011;48368;53.406;6.214;2024-01-16T11:20:20;1.75;;;0.50;;
62338;SDS011;48368;53.406;6.214;2024-01-16T11:22:47;4.43;;;0.98;;
62338;SDS011;48368;53.406;6.214;2024-01-16T11:25:14;3.55;;;1.05;;
62338;SDS011;48368;53.406;6.214;2024-01-16T11:27:45;3.13;;;0.90;;
62338;SDS011;48368;53.406;6.214;2024-01-16T11:30:29;2.67;;;0.80;;
62338;SDS011;48368;53.406;6.214;2024-01-16T11:32:56;1.85;;;0.77;;
62338;SDS011;48368;53.406;6.214;2024-01-16T11:35:31;3.55;;;0.95;;
62338;SDS011;48368;53.406;6.214;2024-01-16T11:40:41;3.15;;;0.80;;
62338;SDS011;48368;53.406;6.214;2024-01-16T11:46:00;3.85;;;1.00;;
62338;SDS011;48368;53.406;6.214;2024-01-16T11:48:27;6.47;;;1.08;;
62338;SDS011;48368;53.406;6.214;2024-01-16T11:50:52;4.95;;;1.40;;
62338;SDS011;48368;53.406;6.214;2024-01-16T11:53:37;5.40;;;1.50;;
62338;SDS011;48368;53.406;6.214;2024-01-16T11:59:08;7.57;;;2.03;;
62338;SDS011;48368;53.406;6.214;2024-01-16T12:01:53;9.65;;;2.22;;
62338;SDS011;48368;53.406;6.214;2024-01-16T12:04:23;8.93;;;2.45;;
62338;SDS011;48368;53.406;6.214;2024-01-16T12:06:58;6.57;;;1.90;;
62338;SDS011;48368;53.406;6.214;2024-01-16T12:09:26;8.48;;;1.85;;
62338;SDS011;48368;53.406;6.214;2024-01-16T12:11:59;6.18;;;1.70;;
62338;SDS011;48368;53.406;6.214;2024-01-16T12:14:26;7.43;;;2.15;;
62338;SDS011;48368;53.406;6.214;2024-01-16T12:16:52;6.90;;;1.30;;
62338;SDS011;48368;53.406;6.214;2024-01-16T12:19:33;6.45;;;1.33;;
62338;SDS011;48368;53.406;6.214;2024-01-16T12:21:59;4.90;;;2.03;;
62338;SDS011;48368;53.406;6.214;2024-01-16T12:24:25;4.70;;;1.30;;
62338;SDS011;48368;53.406;6.214;2024-01-16T12:26:51;5.32;;;1.73;;
62338;SDS011;48368;53.406;6.214;2024-01-16T12:29:18;6.28;;;1.60;;
62338;SDS011;48368;53.406;6.214;2024-01-16T12:31:43;5.32;;;1.58;;
62338;SDS011;48368;53.406;6.214;2024-01-16T12:34:09;3.53;;;1.23;;
62338;SDS011;48368;53.406;6.214;2024-01-16T12:36:35;4.68;;;1.08;;
62338;SDS011;48368;53.406;6.214;2024-01-16T12:39:01;4.78;;;0.90;;
62338;SDS011;48368;53.406;6.214;2024-01-16T12:41:28;10.15;;;1.23;;
62338;SDS011;48368;53.406;6.214;2024-01-16T12:44:01;4.43;;;1.00;;
62338;SDS011;48368;53.406;6.214;2024-01-16T12:46:26;10.18;;;2.78;;
62338;SDS011;48368;53.406;6.214;2024-01-16T12:48:52;4.60;;;1.33;;
62338;SDS011;48368;53.406;6.214;2024-01-16T12:51:20;6.43;;;1.33;;
62338;SDS011;48368;53.406;6.214;2024-01-16T12:53:49;9.25;;;1.45;;
62338;SDS011;48368;53.406;6.214;2024-01-16T12:56:18;9.90;;;2.15;;
62338;SDS011;48368;53.406;6.214;2024-01-16T12:58:45;7.07;;;1.58;;
62338;SDS011;48368;53.406;6.214;2024-01-16T13:01:21;8.05;;;2.20;;
62338;SDS011;48368;53.406;6.214;2024-01-16T13:03:47;7.55;;;1.95;;
62338;SDS011;48368;53.406;6.214;2024-01-16T13:06:17;8.13;;;2.75;;
62338;SDS011;48368;53.406;6.214;2024-01-16T13:08:50;8.05;;;1.83;;
62338;SDS011;48368;53.406;6.214;2024-01-16T13:11:23;8.02;;;2.00;;
62338;SDS011;48368;53.406;6.214;2024-01-16T13:14:00;5.75;;;1.67;;
62338;SDS011;48368;53.406;6.214;2024-01-16T13:16:28;6.85;;;2.15;;
62338;SDS011;48368;53.406;6.214;2024-01-16T13:19:00;9.30;;;3.42;;
62338;SDS011;48368;53.406;6.214;2024-01-16T13:21:27;7.80;;;3.45;;
62338;SDS011;48368;53.406;6.214;2024-01-16T13:23:53;8.93;;;3.13;;
62338;SDS011;48368;53.406;6.214;2024-01-16T13:26:18;8.18;;;3.47;;
62338;SDS011;48368;53.406;6.214;2024-01-16T13:28:44;8.65;;;3.10;;
62338;SDS011;48368;53.406;6.214;2024-01-16T13:31:18;7.20;;;3.67;;
62338;SDS011;48368;53.406;6.214;2024-01-16T13:33:44;7.82;;;3.40;;
62338;SDS011;48368;53.406;6.214;2024-01-16T13:36:09;11.20;;;3.78;;
62338;SDS011;48368;53.406;6.214;2024-01-16T13:38:36;9.77;;;3.33;;
62338;SDS011;48368;53.406;6.214;2024-01-16T13:41:02;12.13;;;3.40;;
62338;SDS011;48368;53.406;6.214;2024-01-16T13:43:28;6.10;;;2.88;;
62338;SDS011;48368;53.406;6.214;2024-01-16T13:45:54;9.07;;;3.47;;
62338;SDS011;48368;53.406;6.214;2024-01-16T13:48:20;9.55;;;3.55;;
62338;SDS011;48368;53.406;6.214;2024-01-16T13:50:46;10.80;;;3.60;;
62338;SDS011;48368;53.406;6.214;2024-01-16T13:53:12;9.13;;;3.35;;
62338;SDS011;48368;53.406;6.214;2024-01-16T13:55:41;8.93;;;3.63;;
62338;SDS011;48368;53.406;6.214;2024-01-16T13:58:07;8.48;;;3.53;;
62338;SDS011;48368;53.406;6.214;2024-01-16T14:00:33;8.65;;;3.40;;
62338;SDS011;48368;53.406;6.214;2024-01-16T14:02:59;7.63;;;2.92;;
62338;SDS011;48368;53.406;6.214;2024-01-16T14:05:25;11.23;;;2.67;;
62338;SDS011;48368;53.406;6.214;2024-01-16T14:07:51;11.43;;;2.58;;
62338;SDS011;48368;53.406;6.214;2024-01-16T14:10:22;6.38;;;2.00;;
62338;SDS011;48368;53.406;6.214;2024-01-16T14:12:51;8.00;;;2.38;;
62338;SDS011;48368;53.406;6.214;2024-01-16T14:15:18;8.15;;;2.60;;
62338;SDS011;48368;53.406;6.214;2024-01-16T14:17:47;6.78;;;2.35;;
62338;SDS011;48368;53.406;6.214;2024-01-16T14:20:20;8.93;;;2.50;;
62338;SDS011;48368;53.406;6.214;2024-01-16T14:22:48;5.20;;;2.53;;
62338;SDS011;48368;53.406;6.214;2024-01-16T14:25:14;7.35;;;2.40;;
62338;SDS011;48368;53.406;6.214;2024-01-16T14:27:44;6.35;;;1.80;;
62338;SDS011;48368;53.406;6.214;2024-01-16T14:30:14;7.78;;;2.22;;
62338;SDS011;48368;53.406;6.214;2024-01-16T14:32:41;7.22;;;2.05;;
62338;SDS011;48368;53.406;6.214;2024-01-16T14:35:08;4.80;;;1.70;;
62338;SDS011;48368;53.406;6.214;2024-01-16T14:37:35;7.50;;;1.70;;
62338;SDS011;48368;53.406;6.214;2024-01-16T14:40:02;9.27;;;1.95;;
62338;SDS011;48368;53.406;6.214;2024-01-16T14:42:32;5.22;;;1.80;;
62338;SDS011;48368;53.406;6.214;2024-01-16T14:45:03;5.50;;;2.00;;
62338;SDS011;48368;53.406;6.214;2024-01-16T14:47:30;7.65;;;2.08;;
62338;SDS011;48368;53.406;6.214;2024-01-16T14:49:56;8.57;;;2.15;;
62338;SDS011;48368;53.406;6.214;2024-01-16T14:52:22;9.43;;;2.80;;
62338;SDS011;48368;53.406;6.214;2024-01-16T14:54:48;9.95;;;2.22;;